createdAt,value
2018-06-09T00:00:54.417Z,0
2018-06-09T00:01:55.185Z,0
2018-06-09T00:02:55.918Z,0
2018-06-09T00:03:56.630Z,0
2018-06-09T00:04:57.360Z,0
2018-06-09T00:05:58.090Z,0
2018-06-09T00:06:58.805Z,0
2018-06-09T00:07:59.541Z,0
2018-06-09T00:09:00.319Z,0
2018-06-09T00:10:01.041Z,0
2018-06-09T00:11:02.028Z,0
2018-06-09T00:12:02.757Z,0
2018-06-09T00:13:03.483Z,0
2018-06-09T00:14:04.769Z,0
2018-06-09T00:15:05.747Z,0
2018-06-09T00:16:06.484Z,0
2018-06-09T00:17:07.214Z,0
2018-06-09T00:18:07.944Z,0
2018-06-09T00:19:08.676Z,0
2018-06-09T00:20:09.403Z,0
2018-06-09T00:21:10.126Z,0
2018-06-09T00:22:10.854Z,0
2018-06-09T00:23:11.576Z,0
2018-06-09T00:24:12.401Z,0
2018-06-09T00:25:13.117Z,0
2018-06-09T00:26:13.852Z,0
2018-06-09T00:27:14.566Z,0
2018-06-09T00:28:15.296Z,0
2018-06-09T00:29:16.021Z,0
2018-06-09T00:30:16.748Z,0
2018-06-09T00:31:17.506Z,0
2018-06-09T00:32:18.235Z,0
2018-06-09T00:33:19.204Z,0
2018-06-09T00:34:19.979Z,0
2018-06-09T00:35:20.700Z,0
2018-06-09T00:36:21.668Z,0
2018-06-09T00:37:22.388Z,0
2018-06-09T00:38:23.114Z,0
2018-06-09T00:39:23.973Z,0
2018-06-09T00:40:24.952Z,0
2018-06-09T00:41:25.671Z,0
2018-06-09T00:42:26.389Z,0
2018-06-09T00:43:27.107Z,0
2018-06-09T00:44:28.143Z,0
2018-06-09T00:45:28.867Z,0
2018-06-09T00:46:29.590Z,0
2018-06-09T00:47:30.357Z,0
2018-06-09T00:48:31.072Z,0
2018-06-09T00:49:31.844Z,0
2018-06-09T00:50:32.576Z,0
2018-06-09T00:51:33.300Z,0
2018-06-09T00:52:34.043Z,0
2018-06-09T00:53:34.769Z,0
2018-06-09T00:54:35.497Z,0
2018-06-09T00:55:36.218Z,0
2018-06-09T00:56:36.948Z,0
2018-06-09T00:57:37.701Z,0
2018-06-09T00:58:38.424Z,0
2018-06-09T00:59:39.153Z,0
2018-06-09T01:00:39.878Z,0
2018-06-09T01:01:40.699Z,0
2018-06-09T01:02:41.426Z,0
2018-06-09T01:03:42.155Z,0
2018-06-09T01:04:42.899Z,0
2018-06-09T01:05:43.629Z,0
2018-06-09T01:06:44.371Z,0
2018-06-09T01:07:45.099Z,0
2018-06-09T01:08:45.819Z,0
2018-06-09T01:09:46.784Z,0
2018-06-09T01:10:47.507Z,0
2018-06-09T01:11:48.234Z,0
2018-06-09T01:12:48.961Z,0
2018-06-09T01:13:49.681Z,0
2018-06-09T01:14:50.443Z,0
2018-06-09T01:15:51.159Z,0
2018-06-09T01:16:51.985Z,0
2018-06-09T01:17:52.962Z,0
2018-06-09T01:18:53.694Z,0
2018-06-09T01:19:54.412Z,0
2018-06-09T01:20:55.134Z,0
2018-06-09T01:21:55.895Z,0
2018-06-09T01:22:56.718Z,0
2018-06-09T01:23:57.449Z,0
2018-06-09T01:24:58.179Z,0
2018-06-09T01:25:58.902Z,0
2018-06-09T01:26:59.867Z,0
2018-06-09T01:28:00.586Z,0
2018-06-09T01:29:01.313Z,0
2018-06-09T01:30:02.036Z,0
2018-06-09T01:31:02.754Z,0
2018-06-09T01:32:03.481Z,0
2018-06-09T01:33:04.609Z,0
2018-06-09T01:34:05.574Z,0
2018-06-09T01:35:06.303Z,0
2018-06-09T01:36:07.023Z,0
2018-06-09T01:37:07.747Z,0
2018-06-09T01:38:08.459Z,0
2018-06-09T01:39:09.192Z,0
2018-06-09T01:40:09.927Z,0
2018-06-09T01:41:10.658Z,0
2018-06-09T01:42:11.381Z,0
2018-06-09T01:43:12.115Z,0
2018-06-09T01:44:12.892Z,0
2018-06-09T01:45:13.618Z,0
2018-06-09T01:46:14.344Z,0
2018-06-09T01:47:15.320Z,0
2018-06-09T01:48:16.033Z,0
2018-06-09T01:49:16.742Z,0
2018-06-09T01:50:17.485Z,0
2018-06-09T01:51:18.217Z,0
2018-06-09T01:52:18.963Z,0
2018-06-09T01:53:19.675Z,0
2018-06-09T01:54:20.396Z,0
2018-06-09T01:55:21.122Z,0
2018-06-09T01:56:21.861Z,0
2018-06-09T01:57:22.571Z,0
2018-06-09T01:58:23.287Z,0
2018-06-09T01:59:24.019Z,0
2018-06-09T02:00:24.759Z,0
2018-06-09T02:01:25.487Z,0
2018-06-09T02:02:26.207Z,0
2018-06-09T02:03:26.936Z,0
2018-06-09T02:04:27.666Z,0
2018-06-09T02:05:28.389Z,0
2018-06-09T02:06:29.162Z,0
2018-06-09T02:07:30.126Z,0
2018-06-09T02:08:30.841Z,0
2018-06-09T02:09:31.563Z,0
2018-06-09T02:10:32.282Z,0
2018-06-09T02:11:33.009Z,0
2018-06-09T02:12:33.723Z,0
2018-06-09T02:13:34.439Z,0
2018-06-09T02:14:35.162Z,0
2018-06-09T02:15:35.893Z,0
2018-06-09T02:16:36.613Z,0
2018-06-09T02:17:37.439Z,0
2018-06-09T02:18:38.156Z,0
2018-06-09T02:19:38.877Z,0
2018-06-09T02:20:39.844Z,0
2018-06-09T02:21:40.818Z,0
2018-06-09T02:22:41.538Z,0
2018-06-09T02:23:42.263Z,0
2018-06-09T02:24:42.992Z,0
2018-06-09T02:25:44.107Z,0
2018-06-09T02:26:45.079Z,4
2018-06-09T02:27:45.812Z,4
2018-06-09T02:28:46.535Z,4
2018-06-09T02:29:47.265Z,4
2018-06-09T02:30:47.998Z,0
2018-06-09T02:31:48.714Z,0
2018-06-09T02:32:49.436Z,4
2018-06-09T02:33:50.155Z,4
2018-06-09T02:34:50.882Z,4
2018-06-09T02:35:51.649Z,8
2018-06-09T02:36:52.388Z,4
2018-06-09T02:37:53.103Z,8
2018-06-09T02:38:53.821Z,8
2018-06-09T02:39:54.555Z,12
2018-06-09T02:40:55.271Z,12
2018-06-09T02:41:56.014Z,12
2018-06-09T02:42:56.735Z,12
2018-06-09T02:43:57.834Z,16
2018-06-09T02:44:58.544Z,20
2018-06-09T02:45:59.270Z,24
2018-06-09T02:46:59.996Z,24
2018-06-09T02:48:00.713Z,28
2018-06-09T02:49:01.552Z,28
2018-06-09T02:50:02.264Z,32
2018-06-09T02:51:02.992Z,36
2018-06-09T02:52:03.719Z,36
2018-06-09T02:53:04.448Z,44
2018-06-09T02:54:05.275Z,48
2018-06-09T02:55:06.001Z,52
2018-06-09T02:56:06.735Z,60
2018-06-09T02:57:07.465Z,64
2018-06-09T02:58:08.196Z,72
2018-06-09T02:59:09.273Z,80
2018-06-09T03:00:10.006Z,84
2018-06-09T03:01:10.735Z,92
2018-06-09T03:02:11.459Z,96
2018-06-09T03:03:12.201Z,108
2018-06-09T03:04:12.933Z,116
2018-06-09T03:05:13.901Z,124
2018-06-09T03:06:14.622Z,132
2018-06-09T03:07:15.355Z,148
2018-06-09T03:08:16.325Z,156
2018-06-09T03:09:17.042Z,172
2018-06-09T03:10:18.175Z,184
2018-06-09T03:11:18.945Z,200
2018-06-09T03:12:19.678Z,212
2018-06-09T03:13:20.411Z,232
2018-06-09T03:14:21.136Z,244
2018-06-09T03:15:21.876Z,260
2018-06-09T03:16:22.749Z,268
2018-06-09T03:17:23.474Z,280
2018-06-09T03:18:24.448Z,288
2018-06-09T03:19:25.175Z,296
2018-06-09T03:20:25.905Z,304
2018-06-09T03:21:26.693Z,320
2018-06-09T03:22:27.418Z,336
2018-06-09T03:23:28.149Z,352
2018-06-09T03:24:28.892Z,372
2018-06-09T03:25:29.636Z,396
2018-06-09T03:26:30.357Z,416
2018-06-09T03:27:31.078Z,440
2018-06-09T03:28:31.809Z,464
2018-06-09T03:29:32.529Z,488
2018-06-09T03:30:33.296Z,516
2018-06-09T03:31:34.028Z,536
2018-06-09T03:32:35.047Z,556
2018-06-09T03:33:35.736Z,576
2018-06-09T03:34:36.826Z,596
2018-06-09T03:35:37.546Z,620
2018-06-09T03:36:38.274Z,640
2018-06-09T03:37:38.996Z,660
2018-06-09T03:38:39.721Z,676
2018-06-09T03:39:40.698Z,700
2018-06-09T03:40:41.439Z,724
2018-06-09T03:41:42.175Z,748
2018-06-09T03:42:42.923Z,772
2018-06-09T03:43:43.643Z,796
2018-06-09T03:44:44.384Z,828
2018-06-09T03:45:45.112Z,856
2018-06-09T03:46:45.843Z,884
2018-06-09T03:47:46.586Z,920
2018-06-09T03:48:47.335Z,960
2018-06-09T03:49:48.035Z,1016
2018-06-09T03:50:48.754Z,1084
2018-06-09T03:51:49.493Z,1156
2018-06-09T03:52:50.223Z,1216
2018-06-09T03:53:50.959Z,1272
2018-06-09T03:54:51.692Z,1320
2018-06-09T03:55:52.418Z,1376
2018-06-09T03:56:53.400Z,1440
2018-06-09T03:57:54.123Z,1524
2018-06-09T03:58:54.861Z,1604
2018-06-09T03:59:55.584Z,1672
2018-06-09T04:00:56.311Z,1752
2018-06-09T04:01:57.035Z,1832
2018-06-09T04:02:57.774Z,1904
2018-06-09T04:03:58.505Z,1972
2018-06-09T04:04:59.234Z,2024
2018-06-09T04:05:59.954Z,2048
2018-06-09T04:07:00.689Z,2036
2018-06-09T04:08:01.423Z,1988
2018-06-09T04:09:02.144Z,1908
2018-06-09T04:10:03.107Z,1848
2018-06-09T04:11:03.847Z,1804
2018-06-09T04:12:04.925Z,1780
2018-06-09T04:13:05.652Z,1772
2018-06-09T04:14:06.381Z,1800
2018-06-09T04:15:07.130Z,1872
2018-06-09T04:16:08.111Z,1984
2018-06-09T04:17:08.845Z,2132
2018-06-09T04:18:09.574Z,2312
2018-06-09T04:19:10.304Z,2508
2018-06-09T04:20:11.033Z,2676
2018-06-09T04:21:11.765Z,2808
2018-06-09T04:22:12.498Z,2948
2018-06-09T04:23:13.234Z,3128
2018-06-09T04:24:13.972Z,3344
2018-06-09T04:25:14.706Z,3580
2018-06-09T04:26:15.445Z,3804
2018-06-09T04:27:16.178Z,3992
2018-06-09T04:28:16.950Z,4148
2018-06-09T04:29:17.626Z,4284
2018-06-09T04:30:18.509Z,4408
2018-06-09T04:31:19.237Z,4536
2018-06-09T04:32:19.967Z,4684
2018-06-09T04:33:20.700Z,4832
2018-06-09T04:34:21.439Z,4972
2018-06-09T04:35:22.211Z,5092
2018-06-09T04:36:22.953Z,5204
2018-06-09T04:37:23.687Z,5300
2018-06-09T04:38:24.680Z,5372
2018-06-09T04:39:25.400Z,5432
2018-06-09T04:40:26.136Z,5496
2018-06-09T04:41:26.864Z,5556
2018-06-09T04:42:27.596Z,5624
2018-06-09T04:43:28.318Z,5700
2018-06-09T04:44:29.050Z,5800
2018-06-09T04:45:29.786Z,5920
2018-06-09T04:46:30.871Z,6024
2018-06-09T04:47:31.601Z,6128
2018-06-09T04:48:32.339Z,6244
2018-06-09T04:49:33.080Z,6368
2018-06-09T04:50:33.802Z,6520
2018-06-09T04:51:34.580Z,6692
2018-06-09T04:52:35.325Z,6836
2018-06-09T04:53:36.037Z,6964
2018-06-09T04:54:36.768Z,7096
2018-06-09T04:55:37.500Z,7232
2018-06-09T04:56:38.334Z,7344
2018-06-09T04:57:39.321Z,7420
2018-06-09T04:58:40.044Z,7496
2018-06-09T04:59:40.777Z,7584
2018-06-09T05:00:41.515Z,7672
2018-06-09T05:01:42.340Z,7764
2018-06-09T05:02:43.067Z,7828
2018-06-09T05:03:43.803Z,7892
2018-06-09T05:04:44.538Z,7996
2018-06-09T05:05:45.264Z,8084
2018-06-09T05:06:46.002Z,8156
2018-06-09T05:07:46.726Z,8192
2018-06-09T05:08:47.510Z,8184
2018-06-09T05:09:48.236Z,8112
2018-06-09T05:10:49.228Z,8012
2018-06-09T05:11:49.963Z,7884
2018-06-09T05:12:50.689Z,7736
2018-06-09T05:13:51.715Z,7648
2018-06-09T05:14:52.467Z,7644
2018-06-09T05:15:53.198Z,7696
2018-06-09T05:16:53.937Z,7752
2018-06-09T05:17:54.674Z,7756
2018-06-09T05:18:55.557Z,7700
2018-06-09T05:19:56.289Z,7580
2018-06-09T05:20:57.012Z,7456
2018-06-09T05:21:57.762Z,7372
2018-06-09T05:22:58.500Z,7404
2018-06-09T05:23:59.216Z,7584
2018-06-09T05:24:59.954Z,7916
2018-06-09T05:26:00.692Z,8388
2018-06-09T05:27:01.430Z,8992
2018-06-09T05:28:02.171Z,9640
2018-06-09T05:29:02.899Z,10236
2018-06-09T05:30:03.636Z,10740
2018-06-09T05:31:04.422Z,11156
2018-06-09T05:32:05.159Z,11544
2018-06-09T05:33:05.911Z,11860
2018-06-09T05:34:06.639Z,12148
2018-06-09T05:35:07.370Z,12548
2018-06-09T05:36:08.240Z,12624
2018-06-09T05:37:08.979Z,12684
2018-06-09T05:38:09.718Z,12760
2018-06-09T05:39:10.481Z,12872
2018-06-09T05:40:11.222Z,13056
2018-06-09T05:41:12.359Z,13204
2018-06-09T05:42:13.097Z,13356
2018-06-09T05:43:13.829Z,13272
2018-06-09T05:44:14.551Z,13156
2018-06-09T05:45:15.276Z,13012
2018-06-09T05:46:16.012Z,12832
2018-06-09T05:47:16.741Z,12500
2018-06-09T05:48:17.475Z,12196
2018-06-09T05:49:18.208Z,11928
2018-06-09T05:50:18.937Z,11728
2018-06-09T05:51:19.665Z,11636
2018-06-09T05:52:20.650Z,11632
2018-06-09T05:53:21.388Z,11656
2018-06-09T05:54:22.136Z,11712
2018-06-09T05:55:22.872Z,11708
2018-06-09T05:56:23.855Z,11652
2018-06-09T05:57:24.586Z,11548
2018-06-09T05:58:25.309Z,11444
2018-06-09T05:59:26.049Z,11420
2018-06-09T06:00:26.775Z,11368
2018-06-09T06:01:27.508Z,11388
2018-06-09T06:02:28.236Z,11600
2018-06-09T06:03:28.970Z,11784
2018-06-09T06:04:29.969Z,11672
2018-06-09T06:05:30.643Z,11624
2018-06-09T06:06:31.375Z,11644
2018-06-09T06:07:32.114Z,11372
2018-06-09T06:08:33.257Z,11128
2018-06-09T06:09:34.247Z,10804
2018-06-09T06:10:34.981Z,10624
2018-06-09T06:11:35.750Z,10544
2018-06-09T06:12:36.481Z,10548
2018-06-09T06:13:37.267Z,10656
2018-06-09T06:14:38.006Z,10848
2018-06-09T06:15:38.991Z,11132
2018-06-09T06:16:39.718Z,11428
2018-06-09T06:17:40.450Z,11664
2018-06-09T06:18:41.186Z,11848
2018-06-09T06:19:41.927Z,12068
2018-06-09T06:20:42.658Z,12352
2018-06-09T06:21:43.637Z,12788
2018-06-09T06:22:44.474Z,13660
2018-06-09T06:23:45.224Z,14920
2018-06-09T06:24:45.957Z,17224
2018-06-09T06:25:46.687Z,15592
2018-06-09T06:26:47.422Z,15076
2018-06-09T06:27:48.151Z,14964
2018-06-09T06:28:48.883Z,15060
2018-06-09T06:29:49.617Z,15276
2018-06-09T06:30:50.346Z,16248
2018-06-09T06:31:51.516Z,16900
2018-06-09T06:32:52.230Z,17640
2018-06-09T06:33:52.960Z,19744
2018-06-09T06:34:53.684Z,23712
2018-06-09T06:35:54.428Z,24320
2018-06-09T06:36:55.161Z,27040
2018-06-09T06:37:56.148Z,24032
2018-06-09T06:38:56.902Z,23008
2018-06-09T06:39:57.630Z,22944
2018-06-09T06:40:58.364Z,21440
2018-06-09T06:41:59.102Z,21728
2018-06-09T06:42:59.837Z,22688
2018-06-09T06:44:00.567Z,20096
2018-06-09T06:45:01.315Z,19232
2018-06-09T06:46:02.092Z,21472
2018-06-09T06:47:02.826Z,21792
2018-06-09T06:48:03.565Z,22592
2018-06-09T06:49:04.284Z,25504
2018-06-09T06:50:05.024Z,23648
2018-06-09T06:51:05.757Z,23904
2018-06-09T06:52:06.510Z,30816
2018-06-09T06:53:07.238Z,19200
2018-06-09T06:54:07.967Z,47424
2018-06-09T06:55:08.704Z,47264
2018-06-09T06:56:09.432Z,28640
2018-06-09T06:57:10.157Z,23200
2018-06-09T06:58:11.431Z,22720
2018-06-09T06:59:12.155Z,28800
2018-06-09T07:00:12.891Z,30016
2018-06-09T07:01:13.632Z,28832
2018-06-09T07:02:14.382Z,24224
2018-06-09T07:03:15.111Z,25920
2018-06-09T07:04:15.854Z,39712
2018-06-09T07:05:16.592Z,45856
2018-06-09T07:06:17.340Z,42528
2018-06-09T07:07:18.069Z,38432
2018-06-09T07:08:18.808Z,39840
2018-06-09T07:09:19.537Z,39200
2018-06-09T07:10:20.282Z,42592
2018-06-09T07:11:21.003Z,56160
2018-06-09T07:12:21.740Z,60992
2018-06-09T07:13:22.497Z,61824
2018-06-09T07:14:23.499Z,60192
2018-06-09T07:15:24.238Z,62048
2018-06-09T07:16:25.024Z,61120
2018-06-09T07:17:25.759Z,46336
2018-06-09T07:18:26.752Z,28096
2018-06-09T07:19:27.501Z,25152
2018-06-09T07:20:28.236Z,25600
2018-06-09T07:21:29.016Z,30208
2018-06-09T07:22:29.745Z,32352
2018-06-09T07:23:30.729Z,36256
2018-06-09T07:24:31.702Z,35040
2018-06-09T07:25:32.685Z,36512
2018-06-09T07:26:33.436Z,45248
2018-06-09T07:27:34.167Z,45664
2018-06-09T07:28:34.893Z,44448
2018-06-09T07:29:35.638Z,47680
2018-06-09T07:30:36.378Z,45760
2018-06-09T07:31:37.113Z,42400
2018-06-09T07:32:37.839Z,47936
2018-06-09T07:33:38.574Z,37696
2018-06-09T07:34:39.311Z,32960
2018-06-09T07:35:40.037Z,31264
2018-06-09T07:36:40.786Z,32608
2018-06-09T07:37:41.512Z,31232
2018-06-09T07:38:42.247Z,30976
2018-06-09T07:39:42.998Z,30944
2018-06-09T07:40:43.726Z,30528
2018-06-09T07:41:44.472Z,30048
2018-06-09T07:42:45.295Z,30016
2018-06-09T07:43:46.029Z,28320
2018-06-09T07:44:46.769Z,26656
2018-06-09T07:45:47.501Z,25984
2018-06-09T07:46:48.233Z,26048
2018-06-09T07:47:49.634Z,26496
2018-06-09T07:48:50.364Z,27296
2018-06-09T07:49:51.089Z,28256
2018-06-09T07:50:51.835Z,29408
2018-06-09T07:51:52.576Z,30560
2018-06-09T07:52:53.309Z,31488
2018-06-09T07:53:54.050Z,32512
2018-06-09T07:54:55.030Z,32736
2018-06-09T07:55:55.768Z,32608
2018-06-09T07:56:56.504Z,31296
2018-06-09T07:57:57.639Z,29824
2018-06-09T07:58:58.391Z,29088
2018-06-09T07:59:59.115Z,28768
2018-06-09T08:00:59.880Z,28768
2018-06-09T08:02:00.606Z,28864
2018-06-09T08:03:01.692Z,28960
2018-06-09T08:04:02.679Z,28992
2018-06-09T08:05:03.416Z,28896
2018-06-09T08:06:04.145Z,28480
2018-06-09T08:07:05.132Z,27904
2018-06-09T08:08:05.880Z,27168
2018-06-09T08:09:06.622Z,26560
2018-06-09T08:10:07.356Z,26176
2018-06-09T08:11:08.095Z,26016
2018-06-09T08:12:08.831Z,25920
2018-06-09T08:13:09.911Z,25920
2018-06-09T08:14:10.647Z,26016
2018-06-09T08:15:11.386Z,25952
2018-06-09T08:16:12.126Z,26112
2018-06-09T08:17:12.860Z,26368
2018-06-09T08:18:13.588Z,27040
2018-06-09T08:19:14.578Z,25984
2018-06-09T08:20:15.308Z,26176
2018-06-09T08:21:16.037Z,28960
2018-06-09T08:22:16.772Z,27584
2018-06-09T08:23:17.502Z,26016
2018-06-09T08:24:18.232Z,25120
2018-06-09T08:25:19.014Z,25216
2018-06-09T08:26:19.760Z,26336
2018-06-09T08:27:20.498Z,27584
2018-06-09T08:28:21.232Z,31552
2018-06-09T08:29:22.216Z,30816
2018-06-09T08:30:23.257Z,33696
2018-06-09T08:31:24.005Z,45312
2018-06-09T08:32:24.747Z,50944
2018-06-09T08:33:25.739Z,56704
2018-06-09T08:34:26.473Z,52640
2018-06-09T08:35:27.607Z,40160
2018-06-09T08:36:28.397Z,35136
2018-06-09T08:37:29.106Z,32704
2018-06-09T08:38:29.846Z,31232
2018-06-09T08:39:30.575Z,31200
2018-06-09T08:40:31.326Z,33184
2018-06-09T08:41:32.047Z,55136
2018-06-09T08:42:32.777Z,51936
2018-06-09T08:43:33.507Z,49152
2018-06-09T08:44:34.235Z,39008
2018-06-09T08:45:35.041Z,35360
2018-06-09T08:46:35.707Z,33088
2018-06-09T08:47:36.542Z,33152
2018-06-09T08:48:37.283Z,33440
2018-06-09T08:49:38.024Z,32800
2018-06-09T08:50:38.759Z,30368
2018-06-09T08:51:39.500Z,43936
2018-06-09T08:52:40.236Z,66912
2018-06-09T08:53:40.980Z,33312
2018-06-09T08:54:41.715Z,34080
2018-06-09T08:55:42.440Z,53696
2018-06-09T08:56:43.172Z,43552
2018-06-09T08:57:44.152Z,56928
2018-06-09T08:58:44.899Z,47328
2018-06-09T08:59:45.637Z,71424
2018-06-09T09:00:46.371Z,77888
2018-06-09T09:01:47.097Z,85440
2018-06-09T09:02:47.832Z,78432
2018-06-09T09:03:48.560Z,90976
2018-06-09T09:04:49.285Z,88544
2018-06-09T09:05:50.028Z,89216
2018-06-09T09:06:50.755Z,88128
2018-06-09T09:07:51.486Z,88800
2018-06-09T09:08:52.218Z,91072
2018-06-09T09:09:52.958Z,89632
2018-06-09T09:10:53.693Z,87072
2018-06-09T09:11:54.442Z,84768
2018-06-09T09:12:55.191Z,83008
2018-06-09T09:13:55.939Z,82752
2018-06-09T09:14:56.673Z,80576
2018-06-09T09:15:57.407Z,82240
2018-06-09T09:16:58.149Z,85600
2018-06-09T09:17:59.237Z,86112
2018-06-09T09:18:59.967Z,85504
2018-06-09T09:20:00.700Z,86400
2018-06-09T09:21:01.438Z,87872
2018-06-09T09:22:02.168Z,71872
2018-06-09T09:23:03.017Z,82080
2018-06-09T09:24:03.740Z,86272
2018-06-09T09:25:04.483Z,87264
2018-06-09T09:26:05.222Z,87488
2018-06-09T09:27:06.208Z,85088
2018-06-09T09:28:06.970Z,83936
2018-06-09T09:29:07.709Z,89408
2018-06-09T09:30:08.445Z,92896
2018-06-09T09:31:09.185Z,94912
2018-06-09T09:32:09.975Z,95168
2018-06-09T09:33:10.663Z,92960
2018-06-09T09:34:11.400Z,90944
2018-06-09T09:35:12.139Z,90528
2018-06-09T09:36:13.124Z,85440
2018-06-09T09:37:13.857Z,81824
2018-06-09T09:38:14.843Z,71616
2018-06-09T09:39:15.583Z,74880
2018-06-09T09:40:16.307Z,81184
2018-06-09T09:41:17.058Z,85248
2018-06-09T09:42:17.798Z,84640
2018-06-09T09:43:18.535Z,87584
2018-06-09T09:44:19.264Z,89568
2018-06-09T09:45:20.008Z,87168
2018-06-09T09:46:20.810Z,92736
2018-06-09T09:47:21.538Z,100864
2018-06-09T09:48:22.276Z,97472
2018-06-09T09:49:23.024Z,49760
2018-06-09T09:50:23.771Z,61760
2018-06-09T09:51:24.571Z,85824
2018-06-09T09:52:25.305Z,96352
2018-06-09T09:53:26.050Z,103232
2018-06-09T09:54:26.791Z,105440
2018-06-09T09:55:27.526Z,104608
2018-06-09T09:56:28.260Z,94368
2018-06-09T09:57:28.994Z,88384
2018-06-09T09:58:29.728Z,88768
2018-06-09T09:59:30.483Z,62176
2018-06-09T10:00:31.214Z,81312
2018-06-09T10:01:31.962Z,105024
2018-06-09T10:02:32.710Z,94144
2018-06-09T10:03:33.451Z,95424
2018-06-09T10:04:34.196Z,88256
2018-06-09T10:05:35.182Z,100800
2018-06-09T10:06:35.926Z,113856
2018-06-09T10:07:36.715Z,111872
2018-06-09T10:08:37.705Z,104960
2018-06-09T10:09:38.444Z,79232
2018-06-09T10:10:39.190Z,90560
2018-06-09T10:11:40.187Z,54624
2018-06-09T10:12:40.926Z,56864
2018-06-09T10:13:41.916Z,72832
2018-06-09T10:14:42.655Z,96416
2018-06-09T10:15:43.385Z,95744
2018-06-09T10:16:44.128Z,63136
2018-06-09T10:17:44.873Z,41280
2018-06-09T10:18:45.607Z,48224
2018-06-09T10:19:46.368Z,53344
2018-06-09T10:20:47.558Z,36704
2018-06-09T10:21:48.289Z,33088
2018-06-09T10:22:49.030Z,36864
2018-06-09T10:23:49.776Z,31200
2018-06-09T10:24:50.533Z,30528
2018-06-09T10:25:51.249Z,30112
2018-06-09T10:26:51.999Z,29888
2018-06-09T10:27:52.743Z,29920
2018-06-09T10:28:53.482Z,30304
2018-06-09T10:29:54.224Z,31360
2018-06-09T10:30:54.970Z,32864
2018-06-09T10:31:55.714Z,34016
2018-06-09T10:32:56.451Z,35040
2018-06-09T10:33:57.455Z,36288
2018-06-09T10:34:58.631Z,37984
2018-06-09T10:35:59.374Z,41440
2018-06-09T10:37:00.153Z,49376
2018-06-09T10:38:00.896Z,84032
2018-06-09T10:39:01.633Z,97344
2018-06-09T10:40:02.375Z,68032
2018-06-09T10:41:03.124Z,66400
2018-06-09T10:42:04.149Z,89536
2018-06-09T10:43:04.893Z,71552
2018-06-09T10:44:05.624Z,74176
2018-06-09T10:45:06.359Z,93088
2018-06-09T10:46:07.099Z,91360
2018-06-09T10:47:07.828Z,97600
2018-06-09T10:48:08.567Z,91456
2018-06-09T10:49:09.293Z,102336
2018-06-09T10:50:10.034Z,101632
2018-06-09T10:51:10.769Z,106048
2018-06-09T10:52:11.762Z,108416
2018-06-09T10:53:12.853Z,44416
2018-06-09T10:54:13.604Z,39808
2018-06-09T10:55:14.345Z,39552
2018-06-09T10:56:15.082Z,39360
2018-06-09T10:57:15.820Z,43104
2018-06-09T10:58:16.957Z,54112
2018-06-09T10:59:17.701Z,64000
2018-06-09T11:00:18.425Z,50464
2018-06-09T11:01:19.153Z,47968
2018-06-09T11:02:19.898Z,52704
2018-06-09T11:03:21.025Z,42464
2018-06-09T11:04:21.754Z,41920
2018-06-09T11:05:22.504Z,43360
2018-06-09T11:06:23.233Z,43808
2018-06-09T11:07:23.979Z,42112
2018-06-09T11:08:24.858Z,43232
2018-06-09T11:09:25.594Z,51360
2018-06-09T11:10:26.336Z,48800
2018-06-09T11:11:27.068Z,45504
2018-06-09T11:12:27.804Z,44832
2018-06-09T11:13:28.532Z,50976
2018-06-09T11:14:29.264Z,44064
2018-06-09T11:15:30.020Z,41408
2018-06-09T11:16:30.747Z,39040
2018-06-09T11:17:31.514Z,39168
2018-06-09T11:18:32.241Z,49152
2018-06-09T11:19:32.983Z,41248
2018-06-09T11:20:33.722Z,42592
2018-06-09T11:21:34.466Z,50272
2018-06-09T11:22:35.704Z,53184
2018-06-09T11:23:36.439Z,56192
2018-06-09T11:24:37.167Z,66688
2018-06-09T11:25:37.919Z,105728
2018-06-09T11:26:38.649Z,116832
2018-06-09T11:27:39.407Z,112992
2018-06-09T11:28:40.132Z,116192
2018-06-09T11:29:40.887Z,80768
2018-06-09T11:30:41.626Z,114336
2018-06-09T11:31:42.518Z,108768
2018-06-09T11:32:43.233Z,103712
2018-06-09T11:33:43.993Z,100992
2018-06-09T11:34:44.725Z,100224
2018-06-09T11:35:45.479Z,101472
2018-06-09T11:36:46.310Z,104992
2018-06-09T11:37:47.056Z,109152
2018-06-09T11:38:47.784Z,108928
2018-06-09T11:39:48.518Z,106240
2018-06-09T11:40:49.253Z,96960
2018-06-09T11:41:50.008Z,88768
2018-06-09T11:42:50.751Z,93504
2018-06-09T11:43:51.481Z,83264
2018-06-09T11:44:52.209Z,91648
2018-06-09T11:45:52.956Z,95264
2018-06-09T11:46:53.690Z,92480
2018-06-09T11:47:54.454Z,92512
2018-06-09T11:48:55.180Z,94048
2018-06-09T11:49:56.170Z,93248
2018-06-09T11:50:56.932Z,94848
2018-06-09T11:51:57.668Z,97728
2018-06-09T11:52:58.409Z,99200
2018-06-09T11:53:59.243Z,101120
2018-06-09T11:54:59.990Z,99424
2018-06-09T11:56:00.732Z,100800
2018-06-09T11:57:01.729Z,97376
2018-06-09T11:58:02.722Z,98944
2018-06-09T11:59:03.468Z,98176
2018-06-09T12:00:04.192Z,96288
2018-06-09T12:01:04.935Z,95680
2018-06-09T12:02:05.664Z,97024
2018-06-09T12:03:06.410Z,91584
2018-06-09T12:04:07.142Z,96448
2018-06-09T12:05:07.883Z,98272
2018-06-09T12:06:08.631Z,97920
2018-06-09T12:07:09.375Z,98944
2018-06-09T12:08:10.111Z,99456
2018-06-09T12:09:10.869Z,98208
2018-06-09T12:10:11.611Z,97888
2018-06-09T12:11:12.595Z,97856
2018-06-09T12:12:13.328Z,98080
2018-06-09T12:13:14.068Z,97568
2018-06-09T12:14:14.809Z,95872
2018-06-09T12:15:15.560Z,94784
2018-06-09T12:16:16.340Z,93664
2018-06-09T12:17:17.116Z,93504
2018-06-09T12:18:17.820Z,91936
2018-06-09T12:19:18.563Z,91616
2018-06-09T12:20:19.554Z,91840
2018-06-09T12:21:20.549Z,90656
2018-06-09T12:22:21.539Z,88992
2018-06-09T12:23:22.515Z,87712
2018-06-09T12:24:23.265Z,85376
2018-06-09T12:25:24.008Z,81440
2018-06-09T12:26:25.151Z,80192
2018-06-09T12:27:25.894Z,80864
2018-06-09T12:28:26.618Z,84032
2018-06-09T12:29:27.359Z,88672
2018-06-09T12:30:28.100Z,92256
2018-06-09T12:31:28.837Z,93536
2018-06-09T12:32:29.635Z,91744
2018-06-09T12:33:30.412Z,91776
2018-06-09T12:34:31.145Z,91136
2018-06-09T12:35:31.882Z,89664
2018-06-09T12:36:32.625Z,91456
2018-06-09T12:37:34.261Z,90560
2018-06-09T12:38:35.414Z,89568
2018-06-09T12:39:36.160Z,88864
2018-06-09T12:40:36.901Z,88960
2018-06-09T12:41:37.647Z,91968
2018-06-09T12:42:38.391Z,93024
2018-06-09T12:43:39.282Z,91744
2018-06-09T12:44:40.023Z,92768
2018-06-09T12:45:40.737Z,92992
2018-06-09T12:46:41.527Z,93024
2018-06-09T12:47:42.270Z,91744
2018-06-09T12:48:43.057Z,80224
2018-06-09T12:49:43.746Z,82304
2018-06-09T12:50:44.523Z,77280
2018-06-09T12:51:45.681Z,68128
2018-06-09T12:52:46.798Z,76064
2018-06-09T12:53:47.627Z,80960
2018-06-09T12:54:48.431Z,83328
2018-06-09T12:55:49.142Z,83680
2018-06-09T12:56:49.909Z,81568
2018-06-09T12:57:50.636Z,79872
2018-06-09T12:58:51.396Z,80224
2018-06-09T12:59:52.140Z,81024
2018-06-09T13:00:52.932Z,83008
2018-06-09T13:01:53.686Z,82816
2018-06-09T13:02:54.408Z,83008
2018-06-09T13:03:55.149Z,82080
2018-06-09T13:04:55.902Z,82368
2018-06-09T13:05:56.633Z,80224
2018-06-09T13:06:57.675Z,76832
2018-06-09T13:07:58.423Z,73312
2018-06-09T13:08:59.155Z,72096
2018-06-09T13:09:59.920Z,72448
2018-06-09T13:11:00.664Z,73472
2018-06-09T13:12:01.424Z,74816
2018-06-09T13:13:02.158Z,76736
2018-06-09T13:14:02.917Z,79200
2018-06-09T13:15:03.645Z,79296
2018-06-09T13:16:04.396Z,77568
2018-06-09T13:17:05.141Z,76480
2018-06-09T13:18:05.885Z,77248
2018-06-09T13:19:06.614Z,79328
2018-06-09T13:20:07.369Z,81984
2018-06-09T13:21:08.113Z,83616
2018-06-09T13:22:08.961Z,84544
2018-06-09T13:23:09.697Z,84192
2018-06-09T13:24:10.444Z,84128
2018-06-09T13:25:11.181Z,81696
2018-06-09T13:26:11.924Z,77952
2018-06-09T13:27:12.671Z,77600
2018-06-09T13:28:13.413Z,81664
2018-06-09T13:29:14.148Z,85120
2018-06-09T13:30:14.927Z,76096
2018-06-09T13:31:15.639Z,64384